<?xml version="1.0" encoding="UTF-8" standalone="no" ?>
<gpx xmlns="http://www.topografix.com/GPX/1/1" xmlns:xsi="http://www.w3.org/2001/XMLSchema-instance" xsi:schemaLocation="http://www.topografix.com/GPX/1/1 http://www.topografix.com/GPX/1/1/gpx.xsd" version="1.1" creator="VisuGPX - https://www.visugpx.com">
  <metadata>
    <name>port d'Alon</name>
    <desc><![CDATA[De Bandol vers port d'Alon]]></desc>
  </metadata>
  <trk>
    <name><![CDATA[port d'Alon]]></name>
    <extensions>
      <line xmlns="http://www.topografix.com/GPX/gpx_style/0/2">
        <color>0000FF</color>
        <width>4</width>
      </line>
    </extensions>
    <trkseg>
      <trkpt lat="43.13663" lon="5.73341">
        <ele>14</ele>
        <time>2018-11-26T10:42:37Z</time>
      </trkpt>
      <trkpt lat="43.13639" lon="5.73163">
        <ele>27</ele>
        <time>2018-11-26T10:43:37Z</time>
      </trkpt>
      <trkpt lat="43.13642" lon="5.72997">
        <ele>22.9</ele>
        <time>2018-11-26T10:44:37Z</time>
      </trkpt>
      <trkpt lat="43.13641" lon="5.72949">
        <ele>21</ele>
      </trkpt>
      <trkpt lat="43.13608" lon="5.7292">
        <ele>24</ele>
        <time>2018-11-26T10:45:37Z</time>
      </trkpt>
      <trkpt lat="43.13558" lon="5.72903">
        <ele>22.2</ele>
        <time>2018-11-26T10:46:37Z</time>
      </trkpt>
      <trkpt lat="43.13582" lon="5.72797">
        <ele>30.1</ele>
        <time>2018-11-26T10:47:37Z</time>
      </trkpt>
      <trkpt lat="43.13705" lon="5.72651">
        <ele>7.8</ele>
        <time>2018-11-26T10:49:37Z</time>
      </trkpt>
      <trkpt lat="43.13699" lon="5.72645">
        <ele>5.9</ele>
      </trkpt>
      <trkpt lat="43.13681" lon="5.72572">
        <ele>5.7</ele>
      </trkpt>
      <trkpt lat="43.13696" lon="5.72573">
        <ele>5.9</ele>
      </trkpt>
      <trkpt lat="43.13714" lon="5.72579">
        <ele>4.5</ele>
      </trkpt>
      <trkpt lat="43.13733" lon="5.72582">
        <ele>4.8</ele>
        <time>2018-11-26T10:50:37Z</time>
      </trkpt>
      <trkpt lat="43.13752" lon="5.72579">
        <ele>8.8</ele>
      </trkpt>
      <trkpt lat="43.13777" lon="5.72557">
        <ele>12.6</ele>
      </trkpt>
      <trkpt lat="43.13811" lon="5.7253">
        <ele>21</ele>
        <time>2018-11-26T10:51:37Z</time>
      </trkpt>
      <trkpt lat="43.13849" lon="5.72525">
        <ele>25.6</ele>
      </trkpt>
      <trkpt lat="43.13929" lon="5.72538">
        <ele>41</ele>
      </trkpt>
      <trkpt lat="43.13919" lon="5.72521">
        <ele>41.4</ele>
      </trkpt>
      <trkpt lat="43.13901" lon="5.72499">
        <ele>41.5</ele>
      </trkpt>
      <trkpt lat="43.1389" lon="5.72497">
        <ele>41.3</ele>
      </trkpt>
      <trkpt lat="43.13862" lon="5.72481">
        <ele>39.9</ele>
      </trkpt>
      <trkpt lat="43.13832" lon="5.7247">
        <ele>41.2</ele>
      </trkpt>
      <trkpt lat="43.13797" lon="5.72477">
        <ele>40.4</ele>
      </trkpt>
      <trkpt lat="43.13784" lon="5.72472">
        <ele>41.2</ele>
      </trkpt>
      <trkpt lat="43.13707" lon="5.72483">
        <ele>35</ele>
      </trkpt>
      <trkpt lat="43.13778" lon="5.72469">
        <ele>41</ele>
      </trkpt>
      <trkpt lat="43.13799" lon="5.72469">
        <ele>41.8</ele>
      </trkpt>
      <trkpt lat="43.13835" lon="5.72462">
        <ele>41.8</ele>
      </trkpt>
      <trkpt lat="43.13862" lon="5.72474">
        <ele>40.9</ele>
      </trkpt>
      <trkpt lat="43.13878" lon="5.7247">
        <ele>42.4</ele>
      </trkpt>
      <trkpt lat="43.13898" lon="5.72427">
        <ele>44.7</ele>
      </trkpt>
      <trkpt lat="43.13909" lon="5.72403">
        <ele>44.2</ele>
        <time>2018-11-26T10:52:37Z</time>
      </trkpt>
      <trkpt lat="43.13945" lon="5.72374">
        <ele>43.5</ele>
      </trkpt>
      <trkpt lat="43.13976" lon="5.72381">
        <ele>44.7</ele>
      </trkpt>
      <trkpt lat="43.14014" lon="5.72357">
        <ele>45.3</ele>
      </trkpt>
      <trkpt lat="43.14056" lon="5.72327">
        <ele>47.5</ele>
      </trkpt>
      <trkpt lat="43.14094" lon="5.7229">
        <ele>50.2</ele>
        <time>2018-11-26T10:53:37Z</time>
      </trkpt>
      <trkpt lat="43.14127" lon="5.72228">
        <ele>46.2</ele>
        <time>2018-11-26T10:54:37Z</time>
      </trkpt>
      <trkpt lat="43.1416" lon="5.72227">
        <ele>51.2</ele>
        <time>2018-11-26T10:55:37Z</time>
      </trkpt>
      <trkpt lat="43.14195" lon="5.72188">
        <ele>46</ele>
        <time>2018-11-26T10:56:37Z</time>
      </trkpt>
      <trkpt lat="43.14229" lon="5.72201">
        <ele>59.6</ele>
      </trkpt>
      <trkpt lat="43.14246" lon="5.72186">
        <ele>60.3</ele>
        <time>2018-11-26T10:57:37Z</time>
      </trkpt>
      <trkpt lat="43.14258" lon="5.7219">
        <ele>63.9</ele>
      </trkpt>
      <trkpt lat="43.14287" lon="5.72183">
        <ele>63.1</ele>
      </trkpt>
      <trkpt lat="43.14316" lon="5.72188">
        <ele>68.1</ele>
        <time>2018-11-26T10:58:37Z</time>
      </trkpt>
      <trkpt lat="43.14369" lon="5.72175">
        <ele>67.2</ele>
      </trkpt>
      <trkpt lat="43.14455" lon="5.72178">
        <ele>65</ele>
        <time>2018-11-26T10:59:37Z</time>
      </trkpt>
      <trkpt lat="43.14552" lon="5.72163">
        <ele>62</ele>
        <time>2018-11-26T11:00:37Z</time>
      </trkpt>
      <trkpt lat="43.14581" lon="5.72151">
        <ele>68.2</ele>
      </trkpt>
      <trkpt lat="43.14605" lon="5.72123">
        <ele>69.8</ele>
        <time>2018-11-26T11:01:37Z</time>
      </trkpt>
      <trkpt lat="43.14687" lon="5.72058">
        <ele>46</ele>
        <time>2018-11-26T11:02:37Z</time>
      </trkpt>
      <trkpt lat="43.14734" lon="5.72038">
        <ele>46</ele>
        <time>2018-11-26T11:03:37Z</time>
      </trkpt>
      <trkpt lat="43.14774" lon="5.72024">
        <ele>55.6</ele>
      </trkpt>
      <trkpt lat="43.14808" lon="5.71946">
        <ele>40</ele>
        <time>2018-11-26T11:04:37Z</time>
      </trkpt>
      <trkpt lat="43.14784" lon="5.7189">
        <ele>20.5</ele>
      </trkpt>
      <trkpt lat="43.1479" lon="5.71843">
        <ele>27</ele>
        <time>2018-11-26T11:05:37Z</time>
      </trkpt>
      <trkpt lat="43.1487" lon="5.71668">
        <ele>43.1</ele>
        <time>2018-11-26T11:06:37Z</time>
      </trkpt>
      <trkpt lat="43.14881" lon="5.71629">
        <ele>41.2</ele>
      </trkpt>
      <trkpt lat="43.1488" lon="5.71593">
        <ele>36.2</ele>
        <time>2018-11-26T11:07:37Z</time>
      </trkpt>
      <trkpt lat="43.14864" lon="5.71562">
        <ele>34.7</ele>
      </trkpt>
      <trkpt lat="43.14851" lon="5.71534">
        <ele>34</ele>
        <time>2018-11-26T11:08:37Z</time>
      </trkpt>
      <trkpt lat="43.14839" lon="5.7153">
        <ele>35.2</ele>
        <time>2018-11-26T11:09:37Z</time>
      </trkpt>
      <trkpt lat="43.14803" lon="5.71509">
        <ele>31</ele>
        <time>2018-11-26T11:10:37Z</time>
      </trkpt>
      <trkpt lat="43.14779" lon="5.71465">
        <ele>41.8</ele>
        <time>2018-11-26T11:11:37Z</time>
      </trkpt>
      <trkpt lat="43.14739" lon="5.71421">
        <ele>43.4</ele>
        <time>2018-11-26T11:12:37Z</time>
      </trkpt>
      <trkpt lat="43.147" lon="5.7137">
        <ele>32</ele>
        <time>2018-11-26T11:13:37Z</time>
      </trkpt>
      <trkpt lat="43.14666" lon="5.71329">
        <ele>42.5</ele>
        <time>2018-11-26T11:14:37Z</time>
      </trkpt>
      <trkpt lat="43.14649" lon="5.7126">
        <ele>35</ele>
        <time>2018-11-26T11:15:37Z</time>
      </trkpt>
      <trkpt lat="43.14584" lon="5.7118">
        <ele>25</ele>
        <time>2018-11-26T11:16:37Z</time>
      </trkpt>
      <trkpt lat="43.14548" lon="5.71165">
        <ele>20</ele>
        <time>2018-11-26T11:17:37Z</time>
      </trkpt>
      <trkpt lat="43.14548" lon="5.71072">
        <ele>17</ele>
        <time>2018-11-26T11:18:37Z</time>
      </trkpt>
      <trkpt lat="43.14556" lon="5.71066">
        <ele>20.2</ele>
        <time>2018-11-26T11:19:37Z</time>
      </trkpt>
      <trkpt lat="43.14568" lon="5.71056">
        <ele>18.6</ele>
        <time>2018-11-26T11:20:37Z</time>
      </trkpt>
      <trkpt lat="43.14595" lon="5.71033">
        <ele>15</ele>
        <time>2018-11-26T11:21:37Z</time>
      </trkpt>
      <trkpt lat="43.14616" lon="5.71034">
        <ele>9.1</ele>
      </trkpt>
      <trkpt lat="43.14645" lon="5.71046">
        <ele>13.6</ele>
      </trkpt>
      <trkpt lat="43.14678" lon="5.71041">
        <ele>13.3</ele>
      </trkpt>
      <trkpt lat="43.14698" lon="5.71029">
        <ele>10.2</ele>
      </trkpt>
      <trkpt lat="43.14744" lon="5.71008">
        <ele>13</ele>
        <time>2018-11-26T11:23:37Z</time>
      </trkpt>
      <trkpt lat="43.14751" lon="5.7098">
        <ele>2</ele>
        <time>2018-11-26T11:24:37Z</time>
      </trkpt>
      <trkpt lat="43.14748" lon="5.70966">
        <ele>2.2</ele>
        <time>2018-11-26T11:26:37Z</time>
      </trkpt>
      <trkpt lat="43.14735" lon="5.70924">
        <ele>17</ele>
        <time>2018-11-26T11:27:37Z</time>
      </trkpt>
      <trkpt lat="43.14688" lon="5.70882">
        <ele>14</ele>
        <time>2018-11-26T11:28:37Z</time>
      </trkpt>
      <trkpt lat="43.1468" lon="5.70867">
        <ele>12.7</ele>
      </trkpt>
      <trkpt lat="43.14685" lon="5.70821">
        <ele>19</ele>
        <time>2018-11-26T11:29:37Z</time>
      </trkpt>
      <trkpt lat="43.14693" lon="5.70773">
        <ele>15.5</ele>
        <time>2018-11-26T11:30:37Z</time>
      </trkpt>
      <trkpt lat="43.14683" lon="5.70767">
        <ele>13.1</ele>
        <time>2018-11-26T11:31:37Z</time>
      </trkpt>
      <trkpt lat="43.14672" lon="5.70747">
        <ele>4.2</ele>
        <time>2018-11-26T11:33:37Z</time>
      </trkpt>
      <trkpt lat="43.1469" lon="5.70776">
        <ele>15.7</ele>
        <time>2018-11-26T11:35:37Z</time>
      </trkpt>
      <trkpt lat="43.14682" lon="5.70858">
        <ele>14.5</ele>
      </trkpt>
      <trkpt lat="43.14684" lon="5.70864">
        <ele>15</ele>
        <time>2018-11-26T11:36:37Z</time>
      </trkpt>
      <trkpt lat="43.14701" lon="5.70899">
        <ele>12</ele>
        <time>2018-11-26T11:37:37Z</time>
      </trkpt>
      <trkpt lat="43.14748" lon="5.70941">
        <ele>17</ele>
        <time>2018-11-26T11:38:37Z</time>
      </trkpt>
      <trkpt lat="43.14751" lon="5.70996">
        <ele>13</ele>
        <time>2018-11-26T11:39:37Z</time>
      </trkpt>
      <trkpt lat="43.14707" lon="5.7102">
        <ele>15</ele>
        <time>2018-11-26T11:40:37Z</time>
      </trkpt>
      <trkpt lat="43.14649" lon="5.71048">
        <ele>14.5</ele>
      </trkpt>
      <trkpt lat="43.14615" lon="5.71029">
        <ele>15</ele>
        <time>2018-11-26T11:41:37Z</time>
      </trkpt>
      <trkpt lat="43.14572" lon="5.71047">
        <ele>16.2</ele>
        <time>2018-11-26T11:42:37Z</time>
      </trkpt>
      <trkpt lat="43.14554" lon="5.71062">
        <ele>19.4</ele>
        <time>2018-11-26T11:43:37Z</time>
      </trkpt>
      <trkpt lat="43.14549" lon="5.71105">
        <ele>19</ele>
        <time>2018-11-26T11:44:37Z</time>
      </trkpt>
      <trkpt lat="43.14555" lon="5.71166">
        <ele>22</ele>
        <time>2018-11-26T11:45:37Z</time>
      </trkpt>
      <trkpt lat="43.14595" lon="5.7119">
        <ele>27</ele>
        <time>2018-11-26T11:46:37Z</time>
      </trkpt>
      <trkpt lat="43.14644" lon="5.71245">
        <ele>35</ele>
        <time>2018-11-26T11:47:37Z</time>
      </trkpt>
      <trkpt lat="43.14665" lon="5.71317">
        <ele>41.6</ele>
        <time>2018-11-26T11:48:37Z</time>
      </trkpt>
      <trkpt lat="43.14688" lon="5.71361">
        <ele>31</ele>
        <time>2018-11-26T11:49:37Z</time>
      </trkpt>
      <trkpt lat="43.14744" lon="5.71423">
        <ele>43.6</ele>
      </trkpt>
      <trkpt lat="43.14744" lon="5.71429">
        <ele>37</ele>
        <time>2018-11-26T11:50:37Z</time>
      </trkpt>
      <trkpt lat="43.14779" lon="5.71461">
        <ele>41.8</ele>
        <time>2018-11-26T11:51:37Z</time>
      </trkpt>
      <trkpt lat="43.14809" lon="5.71518">
        <ele>38.9</ele>
        <time>2018-11-26T11:52:37Z</time>
      </trkpt>
      <trkpt lat="43.1485" lon="5.71537">
        <ele>33.9</ele>
      </trkpt>
      <trkpt lat="43.14871" lon="5.71584">
        <ele>34.7</ele>
      </trkpt>
      <trkpt lat="43.14877" lon="5.71623">
        <ele>38.5</ele>
      </trkpt>
      <trkpt lat="43.14865" lon="5.71668">
        <ele>40.5</ele>
        <time>2018-11-26T11:53:37Z</time>
      </trkpt>
      <trkpt lat="43.14839" lon="5.7172">
        <ele>40.9</ele>
        <time>2018-11-26T11:54:37Z</time>
      </trkpt>
      <trkpt lat="43.1479" lon="5.71827">
        <ele>27</ele>
        <time>2018-11-26T11:55:37Z</time>
      </trkpt>
      <trkpt lat="43.1478" lon="5.71889">
        <ele>20.2</ele>
        <time>2018-11-26T11:56:37Z</time>
      </trkpt>
      <trkpt lat="43.14814" lon="5.71945">
        <ele>40</ele>
        <time>2018-11-26T11:57:37Z</time>
      </trkpt>
      <trkpt lat="43.14778" lon="5.72028">
        <ele>49</ele>
        <time>2018-11-26T11:58:37Z</time>
      </trkpt>
      <trkpt lat="43.14703" lon="5.72056">
        <ele>47</ele>
        <time>2018-11-26T11:59:37Z</time>
      </trkpt>
      <trkpt lat="43.14621" lon="5.7211">
        <ele>53</ele>
        <time>2018-11-26T12:00:37Z</time>
      </trkpt>
      <trkpt lat="43.14603" lon="5.72138">
        <ele>66.6</ele>
        <time>2018-11-26T12:01:37Z</time>
      </trkpt>
      <trkpt lat="43.14583" lon="5.7216">
        <ele>65.1</ele>
      </trkpt>
      <trkpt lat="43.14477" lon="5.72176">
        <ele>67.9</ele>
        <time>2018-11-26T12:02:37Z</time>
      </trkpt>
      <trkpt lat="43.14459" lon="5.72194">
        <ele>69</ele>
      </trkpt>
      <trkpt lat="43.14437" lon="5.72213">
        <ele>71.7</ele>
      </trkpt>
      <trkpt lat="43.14406" lon="5.72228">
        <ele>76.6</ele>
      </trkpt>
      <trkpt lat="43.1436" lon="5.72268">
        <ele>82.1</ele>
      </trkpt>
      <trkpt lat="43.14335" lon="5.72305">
        <ele>83.9</ele>
        <time>2018-11-26T12:03:37Z</time>
      </trkpt>
      <trkpt lat="43.14308" lon="5.72405">
        <ele>80.5</ele>
        <time>2018-11-26T12:04:37Z</time>
      </trkpt>
      <trkpt lat="43.14258" lon="5.72485">
        <ele>76.9</ele>
        <time>2018-11-26T12:05:37Z</time>
      </trkpt>
      <trkpt lat="43.14241" lon="5.72499">
        <ele>76.1</ele>
      </trkpt>
      <trkpt lat="43.14225" lon="5.72506">
        <ele>75.2</ele>
      </trkpt>
      <trkpt lat="43.14193" lon="5.725">
        <ele>73.8</ele>
      </trkpt>
      <trkpt lat="43.14157" lon="5.72494">
        <ele>68.7</ele>
        <time>2018-11-26T12:06:37Z</time>
      </trkpt>
      <trkpt lat="43.14137" lon="5.72484">
        <ele>65.8</ele>
      </trkpt>
      <trkpt lat="43.14108" lon="5.72485">
        <ele>60.1</ele>
        <time>2018-11-26T12:07:37Z</time>
      </trkpt>
      <trkpt lat="43.14091" lon="5.72506">
        <ele>55.2</ele>
      </trkpt>
      <trkpt lat="43.14062" lon="5.72507">
        <ele>52.1</ele>
      </trkpt>
      <trkpt lat="43.14059" lon="5.72521">
        <ele>50.7</ele>
        <time>2018-11-26T12:08:37Z</time>
      </trkpt>
      <trkpt lat="43.14008" lon="5.72557">
        <ele>44.4</ele>
        <time>2018-11-26T12:09:37Z</time>
      </trkpt>
      <trkpt lat="43.13974" lon="5.7254">
        <ele>41.9</ele>
      </trkpt>
      <trkpt lat="43.13917" lon="5.72547">
        <ele>39</ele>
        <time>2018-11-26T12:10:37Z</time>
      </trkpt>
      <trkpt lat="43.13851" lon="5.72528">
        <ele>24.9</ele>
        <time>2018-11-26T12:11:37Z</time>
      </trkpt>
      <trkpt lat="43.13816" lon="5.72531">
        <ele>20.4</ele>
      </trkpt>
      <trkpt lat="43.13753" lon="5.72587">
        <ele>6.2</ele>
        <time>2018-11-26T12:12:37Z</time>
      </trkpt>
      <trkpt lat="43.13738" lon="5.72594">
        <ele>4.4</ele>
      </trkpt>
      <trkpt lat="43.13684" lon="5.72575">
        <ele>5</ele>
      </trkpt>
      <trkpt lat="43.13702" lon="5.72639">
        <ele>3.9</ele>
        <time>2018-11-26T12:16:37Z</time>
      </trkpt>
      <trkpt lat="43.13708" lon="5.72655">
        <ele>9</ele>
        <time>2018-11-26T12:17:37Z</time>
      </trkpt>
      <trkpt lat="43.13671" lon="5.72701">
        <ele>17</ele>
        <time>2018-11-26T12:18:37Z</time>
      </trkpt>
      <trkpt lat="43.13607" lon="5.72774">
        <ele>17</ele>
        <time>2018-11-26T12:19:37Z</time>
      </trkpt>
      <trkpt lat="43.13567" lon="5.72842">
        <ele>17</ele>
        <time>2018-11-26T12:20:37Z</time>
      </trkpt>
      <trkpt lat="43.13563" lon="5.7292">
        <ele>16</ele>
        <time>2018-11-26T12:21:37Z</time>
      </trkpt>
      <trkpt lat="43.13616" lon="5.72912">
        <ele>28.3</ele>
      </trkpt>
      <trkpt lat="43.13648" lon="5.72948">
        <ele>21</ele>
        <time>2018-11-26T12:22:37Z</time>
      </trkpt>
      <trkpt lat="43.13643" lon="5.73057">
        <ele>25</ele>
        <time>2018-11-26T12:24:37Z</time>
      </trkpt>
      <trkpt lat="43.13645" lon="5.73184">
        <ele>21</ele>
        <time>2018-11-26T12:25:37Z</time>
      </trkpt>
      <trkpt lat="43.13668" lon="5.73342">
        <ele>14</ele>
        <time>2018-11-26T12:26:37Z</time>
      </trkpt>
    </trkseg>
  </trk>
</gpx>